createdAt,value
2022-12-31T00:01:28.240Z,93.07
2022-12-31T00:06:29.057Z,92.76
2022-12-31T00:11:29.924Z,92.46
2022-12-31T00:16:30.691Z,92.55
2022-12-31T00:21:31.404Z,92.35
2022-12-31T00:26:32.142Z,92.46
2022-12-31T00:31:32.859Z,92.14
2022-12-31T00:36:33.573Z,91.94
2022-12-31T00:41:34.350Z,92.25
2022-12-31T00:51:44.438Z,92.55
2022-12-31T00:56:45.186Z,93.12
2022-12-31T01:01:46.020Z,93.42
2022-12-31T01:06:46.710Z,93.52
2022-12-31T01:11:47.473Z,93.83
2022-12-31T01:16:48.171Z,93.93
2022-12-31T01:21:48.907Z,94.04
2022-12-31T01:26:49.731Z,93.99
2022-12-31T01:31:50.451Z,93.89
2022-12-31T01:36:51.164Z,93.99
2022-12-31T01:41:51.976Z,93.99
2022-12-31T01:46:52.637Z,93.64
2022-12-31T01:51:53.350Z,93.54
2022-12-31T01:56:54.067Z,93.49
2022-12-31T02:01:55.014Z,93.39
2022-12-31T02:06:55.243Z,93.15
2022-12-31T02:11:55.983Z,93.25
2022-12-31T02:16:56.713Z,93.66
2022-12-31T02:21:57.472Z,93.51
2022-12-31T02:26:58.246Z,93.20
2022-12-31T02:31:58.970Z,93.20
2022-12-31T02:36:59.687Z,93.51
2022-12-31T02:42:00.441Z,93.30
2022-12-31T02:47:01.128Z,93.82
2022-12-31T02:52:01.836Z,93.82
2022-12-31T02:57:09.577Z,93.92
2022-12-31T03:02:03.491Z,94.23
2022-12-31T03:07:03.729Z,94.33
2022-12-31T03:12:04.439Z,94.33
2022-12-31T03:17:05.189Z,94.23
2022-12-31T03:22:05.885Z,94.54
2022-12-31T03:27:06.609Z,94.39
2022-12-31T03:32:07.357Z,94.18
2022-12-31T03:37:08.067Z,94.12
2022-12-31T03:42:08.800Z,93.92
2022-12-31T03:47:09.544Z,94.12
2022-12-31T03:52:10.232Z,94.33
2022-12-31T03:57:10.955Z,94.54
2022-12-31T04:02:11.859Z,94.84
2022-12-31T04:07:12.580Z,94.95
2022-12-31T04:12:13.312Z,94.84
2022-12-31T04:17:14.050Z,94.43
2022-12-31T04:22:14.852Z,94.59
2022-12-31T04:27:15.571Z,94.39
2022-12-31T04:32:16.311Z,94.29
2022-12-31T04:37:17.020Z,94.39
2022-12-31T04:42:17.756Z,94.75
2022-12-31T04:47:23.435Z,94.75
2022-12-31T04:52:20.082Z,95.17
2022-12-31T04:57:19.796Z,95.17
2022-12-31T05:02:20.649Z,95.12
2022-12-31T05:07:21.397Z,95.12
2022-12-31T05:12:22.183Z,94.81
2022-12-31T05:17:22.898Z,94.46
2022-12-31T05:22:23.604Z,94.26
2022-12-31T05:27:24.368Z,94.36
2022-12-31T05:32:25.078Z,94.46
2022-12-31T05:37:25.785Z,95.89
2022-12-31T05:42:26.516Z,97.53
2022-12-31T05:47:27.211Z,99.27
2022-12-31T05:52:27.921Z,99.99
2022-12-31T05:57:28.637Z,99.99
2022-12-31T06:02:29.416Z,99.99
2022-12-31T06:07:30.115Z,99.99
2022-12-31T06:12:30.829Z,99.99
2022-12-31T06:17:31.545Z,99.99
2022-12-31T06:22:32.312Z,99.99
2022-12-31T06:27:33.069Z,99.99
2022-12-31T06:32:33.824Z,99.99
2022-12-31T06:37:34.534Z,99.99
2022-12-31T06:42:35.206Z,99.99
2022-12-31T06:47:35.894Z,99.99
2022-12-31T06:52:36.580Z,99.68
2022-12-31T06:57:37.286Z,99.13
2022-12-31T07:02:38.133Z,98.82
2022-12-31T07:07:38.932Z,98.41
2022-12-31T07:12:39.594Z,98.41
2022-12-31T07:17:40.280Z,97.86
2022-12-31T07:22:40.962Z,97.45
2022-12-31T07:27:41.616Z,96.38
2022-12-31T07:32:42.285Z,95.77
2022-12-31T07:37:42.980Z,95.01
2022-12-31T07:42:43.605Z,94.05
2022-12-31T07:47:44.342Z,94.72
2022-12-31T07:52:45.021Z,92.18
2022-12-31T07:57:45.727Z,91.22
2022-12-31T08:02:46.425Z,91.22
2022-12-31T08:07:47.052Z,91.11
2022-12-31T08:12:47.732Z,90.77
2022-12-31T08:17:48.373Z,90.25
2022-12-31T08:22:49.093Z,90.05
2022-12-31T08:27:49.752Z,89.85
2022-12-31T08:32:50.512Z,89.75
2022-12-31T08:37:51.159Z,89.40
2022-12-31T08:42:51.825Z,88.65
2022-12-31T08:47:58.017Z,88.04
2022-12-31T08:52:54.118Z,88.13
2022-12-31T08:57:53.828Z,87.38
2022-12-31T09:02:54.507Z,87.18
2022-12-31T09:07:55.169Z,87.18
2022-12-31T09:12:55.865Z,86.22
2022-12-31T09:17:56.544Z,86.33
2022-12-31T09:22:57.251Z,85.92
2022-12-31T09:27:57.904Z,85.17
2022-12-31T09:33:01.056Z,84.72
2022-12-31T09:37:59.051Z,84.52
2022-12-31T09:42:59.851Z,84.22
2022-12-31T09:48:00.547Z,84.12
2022-12-31T09:53:01.347Z,83.77
2022-12-31T09:58:02.024Z,83.57
2022-12-31T10:03:02.808Z,83.03
2022-12-31T10:08:03.445Z,83.03
2022-12-31T10:13:04.249Z,82.82
2022-12-31T10:18:04.915Z,82.52
2022-12-31T10:23:05.607Z,83.23
2022-12-31T10:28:06.289Z,83.83
2022-12-31T10:33:07.065Z,84.44
2022-12-31T10:38:07.717Z,84.85
2022-12-31T10:43:08.372Z,86.27
2022-12-31T10:48:09.093Z,87.59
2022-12-31T10:53:09.788Z,88.03
2022-12-31T10:58:10.464Z,89.45
2022-12-31T11:03:11.206Z,90.61
2022-12-31T11:08:11.892Z,90.92
2022-12-31T11:13:12.533Z,91.02
2022-12-31T11:18:13.215Z,91.02
2022-12-31T11:23:13.890Z,91.02
2022-12-31T11:28:14.588Z,91.32
2022-12-31T11:33:15.239Z,91.42
2022-12-31T11:38:15.921Z,91.32
2022-12-31T11:43:16.615Z,91.22
2022-12-31T11:48:33.062Z,90.71
2022-12-31T11:53:18.874Z,89.86
2022-12-31T11:58:18.568Z,88.80
2022-12-31T12:03:19.244Z,86.68
2022-12-31T12:08:19.942Z,84.81
2022-12-31T12:13:20.588Z,83.55
2022-12-31T12:18:21.318Z,81.49
2022-12-31T12:23:22.098Z,80.13
2022-12-31T12:28:22.749Z,79.33
2022-12-31T12:33:23.477Z,78.38
2022-12-31T12:38:24.141Z,77.53
2022-12-31T12:43:24.847Z,77.13
2022-12-31T12:48:25.531Z,76.62
2022-12-31T12:53:26.219Z,76.28
2022-12-31T12:58:27.856Z,75.98
2022-12-31T13:03:27.585Z,75.68
2022-12-31T13:08:28.249Z,75.48
2022-12-31T13:13:28.915Z,75.27
2022-12-31T13:18:29.670Z,75.17
2022-12-31T13:23:34.821Z,74.66
2022-12-31T13:28:31.941Z,74.87
2022-12-31T13:33:31.653Z,74.77
2022-12-31T13:38:32.300Z,74.46
2022-12-31T13:43:32.967Z,74.53
2022-12-31T13:48:33.646Z,74.53
2022-12-31T13:53:34.322Z,74.43
2022-12-31T13:58:34.980Z,74.13
2022-12-31T14:03:35.633Z,73.18
2022-12-31T14:08:36.302Z,73.38
2022-12-31T14:13:37.001Z,73.28
2022-12-31T14:18:37.641Z,73.82
2022-12-31T14:23:38.409Z,74.43
2022-12-31T14:28:44.684Z,75.37
2022-12-31T14:33:40.736Z,75.92
2022-12-31T14:38:40.473Z,76.52
2022-12-31T14:43:41.141Z,76.86
2022-12-31T14:48:41.814Z,76.66
2022-12-31T14:53:42.500Z,76.76
2022-12-31T14:58:43.226Z,76.66
2022-12-31T15:03:46.006Z,76.32
2022-12-31T15:08:44.368Z,76.12
2022-12-31T15:13:45.152Z,76.35
2022-12-31T15:18:45.888Z,76.56
2022-12-31T15:23:46.592Z,76.46
2022-12-31T15:28:47.297Z,76.46
2022-12-31T15:33:48.084Z,76.76
2022-12-31T15:38:48.787Z,77.10
2022-12-31T15:43:49.518Z,76.90
2022-12-31T15:48:52.932Z,77.40
2022-12-31T15:53:51.180Z,77.71
2022-12-31T15:58:51.905Z,77.61
2022-12-31T16:03:52.647Z,77.84
2022-12-31T16:08:53.445Z,78.55
2022-12-31T16:13:54.169Z,78.05
2022-12-31T16:18:54.947Z,77.75
2022-12-31T16:23:55.747Z,77.84
2022-12-31T16:28:56.573Z,77.54
2022-12-31T16:33:57.293Z,77.20
2022-12-31T16:38:58.038Z,77.30
2022-12-31T16:43:58.817Z,77.34
2022-12-31T16:48:59.698Z,77.00
2022-12-31T16:54:07.420Z,76.15
2022-12-31T16:59:01.208Z,75.75
2022-12-31T17:04:01.879Z,75.65
2022-12-31T17:09:02.806Z,75.34
2022-12-31T17:14:03.481Z,75.45
2022-12-31T17:19:04.291Z,74.94
2022-12-31T17:24:05.013Z,74.40
2022-12-31T17:29:05.804Z,74.10
2022-12-31T17:34:06.560Z,73.99
2022-12-31T17:39:07.265Z,73.69
2022-12-31T17:44:07.982Z,73.59
2022-12-31T17:49:08.837Z,73.28
2022-12-31T17:54:09.531Z,72.75
2022-12-31T17:59:10.259Z,72.75
2022-12-31T18:04:11.007Z,72.85
2022-12-31T18:09:11.706Z,72.88
2022-12-31T18:14:12.445Z,72.78
2022-12-31T18:19:23.470Z,72.99
2022-12-31T18:24:15.609Z,73.19
2022-12-31T18:29:14.321Z,73.08
2022-12-31T18:34:15.068Z,72.78
2022-12-31T18:39:15.834Z,73.12
2022-12-31T18:44:16.541Z,73.22
2022-12-31T18:49:17.256Z,73.32
2022-12-31T18:54:18.000Z,73.43
2022-12-31T18:59:18.747Z,73.43
2022-12-31T19:04:24.983Z,73.22
2022-12-31T19:09:44.663Z,73.32
2022-12-31T19:14:21.799Z,73.63
2022-12-31T19:19:21.490Z,74.07
2022-12-31T19:24:22.209Z,74.16
2022-12-31T19:29:22.957Z,74.27
2022-12-31T19:34:23.697Z,74.47
2022-12-31T19:39:24.434Z,74.60
2022-12-31T19:44:25.276Z,74.81
2022-12-31T19:49:26.090Z,74.91
2022-12-31T19:54:26.813Z,74.81
2022-12-31T19:59:27.523Z,74.81
2022-12-31T20:04:28.274Z,74.51
2022-12-31T20:09:28.981Z,74.00
2022-12-31T20:14:29.695Z,73.80
2022-12-31T20:19:30.438Z,73.49
2022-12-31T20:24:31.148Z,72.65
2022-12-31T20:29:31.868Z,72.58
2022-12-31T20:34:32.592Z,72.14
2022-12-31T20:39:33.358Z,71.53
2022-12-31T20:44:34.070Z,71.33
2022-12-31T20:50:09.040Z,71.13
2022-12-31T20:54:36.399Z,71.13
2022-12-31T20:59:36.117Z,70.52
2022-12-31T21:04:36.981Z,69.81
2022-12-31T21:09:37.714Z,69.71
2022-12-31T21:14:44.439Z,69.18
2022-12-31T21:19:40.027Z,68.97
2022-12-31T21:24:39.745Z,68.87
2022-12-31T21:30:10.097Z,68.57
2022-12-31T21:34:42.077Z,68.80
2022-12-31T21:39:41.776Z,68.60
2022-12-31T21:44:42.496Z,68.50
2022-12-31T21:49:43.221Z,68.19
2022-12-31T21:54:43.970Z,67.66
2022-12-31T21:59:46.586Z,67.59
2022-12-31T22:05:02.611Z,67.49
2022-12-31T22:09:46.966Z,67.18
2022-12-31T22:15:14.654Z,66.85
2022-12-31T22:20:17.117Z,66.55
2022-12-31T22:24:48.839Z,66.98
2022-12-31T22:29:48.581Z,66.98
2022-12-31T22:34:49.319Z,66.88
2022-12-31T22:39:50.021Z,66.78
2022-12-31T22:44:50.734Z,66.47
2022-12-31T22:49:51.576Z,66.67
2022-12-31T22:54:59.253Z,66.47
2022-12-31T22:59:52.969Z,66.38
2022-12-31T23:04:53.690Z,66.07
2022-12-31T23:09:55.326Z,66.20
2022-12-31T23:14:55.022Z,66.20
2022-12-31T23:19:55.738Z,65.90
2022-12-31T23:24:56.458Z,65.80
2022-12-31T23:29:57.200Z,65.19
2022-12-31T23:34:57.897Z,64.99
2022-12-31T23:39:58.616Z,64.99
2022-12-31T23:44:59.336Z,64.89
2022-12-31T23:50:00.108Z,65.22
2022-12-31T23:55:00.783Z,64.82
